createdAt,value
2023-03-11T00:02:17.136Z,1.00
2023-03-11T00:04:44.333Z,1.00
2023-03-11T00:07:11.675Z,1.00
2023-03-11T00:09:38.474Z,1.00
2023-03-11T00:12:05.857Z,1.00
2023-03-11T00:14:32.702Z,1.00
2023-03-11T00:16:59.511Z,1.00
2023-03-11T00:19:26.517Z,1.00
2023-03-11T00:21:53.317Z,1.00
2023-03-11T00:24:20.146Z,1.00
2023-03-11T00:26:46.964Z,21.00
2023-03-11T00:29:13.774Z,83.50
2023-03-11T00:31:40.605Z,99.90
2023-03-11T00:34:07.402Z,99.90
2023-03-11T00:36:34.349Z,99.90
2023-03-11T00:39:06.593Z,99.90
2023-03-11T00:41:34.715Z,99.90
2023-03-11T00:44:01.520Z,99.90
2023-03-11T00:46:29.930Z,99.90
2023-03-11T00:48:57.149Z,99.90
2023-03-11T00:51:23.931Z,99.90
2023-03-11T00:53:50.754Z,99.90
2023-03-11T00:56:17.703Z,99.90
2023-03-11T00:58:45.818Z,99.90
2023-03-11T01:01:17.587Z,99.90
2023-03-11T01:03:44.582Z,99.90
2023-03-11T01:06:11.426Z,99.90
2023-03-11T01:08:38.316Z,1.00
2023-03-11T01:11:06.533Z,1.00
2023-03-11T01:13:34.090Z,1.00
2023-03-11T01:16:01.287Z,1.00
2023-03-11T01:18:28.199Z,1.00
2023-03-11T01:20:55.083Z,1.00
2023-03-11T01:23:22.465Z,1.00
2023-03-11T01:25:49.242Z,1.00
2023-03-11T01:28:16.077Z,1.00
2023-03-11T01:30:43.180Z,1.00
2023-03-11T01:33:15.313Z,1.00
2023-03-11T01:35:43.667Z,1.00
2023-03-11T01:38:11.270Z,1.00
2023-03-11T01:40:44.674Z,1.00
2023-03-11T01:43:41.453Z,1.00
2023-03-11T01:46:20.528Z,1.00
2023-03-11T01:48:52.112Z,1.00
2023-03-11T01:51:24.805Z,1.00
2023-03-11T01:53:53.094Z,1.00
2023-03-11T01:56:20.194Z,25.40
2023-03-11T01:58:50.115Z,35.70
2023-03-11T02:01:17.021Z,26.60
2023-03-11T02:03:43.796Z,1.00
2023-03-11T02:06:13.860Z,1.00
2023-03-11T02:08:42.780Z,19.80
2023-03-11T02:11:13.649Z,89.60
2023-03-11T02:13:42.134Z,99.90
2023-03-11T02:16:09.230Z,99.90
2023-03-11T02:18:37.003Z,99.90
2023-03-11T02:21:07.142Z,93.80
2023-03-11T02:23:45.050Z,50.70
2023-03-11T02:26:37.274Z,92.00
2023-03-11T02:29:05.147Z,13.60
2023-03-11T02:31:32.223Z,1.00
2023-03-11T02:34:02.161Z,19.20
2023-03-11T02:36:36.808Z,74.20
2023-03-11T02:39:04.548Z,76.30
2023-03-11T02:41:32.520Z,99.90
2023-03-11T02:44:00.104Z,99.90
2023-03-11T02:46:27.118Z,99.90
2023-03-11T02:48:54.505Z,99.90
2023-03-11T02:51:21.312Z,99.90
2023-03-11T02:53:51.953Z,99.90
2023-03-11T02:56:18.894Z,99.90
2023-03-11T02:58:45.716Z,99.90
2023-03-11T03:01:12.900Z,99.90
2023-03-11T03:03:39.733Z,99.90
2023-03-11T03:06:06.914Z,99.90
2023-03-11T03:08:33.732Z,99.90
2023-03-11T03:11:01.215Z,99.90
2023-03-11T03:13:28.049Z,99.90
2023-03-11T03:15:55.354Z,99.90
2023-03-11T03:18:22.179Z,99.90
2023-03-11T03:20:48.951Z,99.90
2023-03-11T03:23:15.727Z,99.90
2023-03-11T03:25:44.047Z,99.90
2023-03-11T03:28:11.957Z,51.80
2023-03-11T03:30:39.461Z,1.00
2023-03-11T03:33:07.132Z,1.00
2023-03-11T03:35:34.475Z,1.00
2023-03-11T03:38:01.784Z,1.00
2023-03-11T03:40:28.682Z,1.00
2023-03-11T03:42:55.505Z,99.90
2023-03-11T03:45:22.359Z,99.90
2023-03-11T03:47:49.135Z,99.90
2023-03-11T03:50:15.950Z,99.90
2023-03-11T03:52:42.685Z,99.90
2023-03-11T03:55:09.787Z,99.90
2023-03-11T03:57:36.618Z,99.90
2023-03-11T04:00:04.606Z,99.90
2023-03-11T04:02:31.585Z,99.90
2023-03-11T04:04:58.398Z,99.90
2023-03-11T04:07:25.253Z,99.90
2023-03-11T04:09:52.096Z,1.00
2023-03-11T04:12:18.924Z,1.00
2023-03-11T04:14:45.754Z,1.00
2023-03-11T04:17:13.908Z,1.00
2023-03-11T04:19:40.846Z,1.00
2023-03-11T04:22:07.652Z,1.00
2023-03-11T04:24:34.577Z,1.00
2023-03-11T04:27:01.682Z,29.50
2023-03-11T04:29:28.668Z,99.90
2023-03-11T04:31:55.428Z,99.90
2023-03-11T04:34:22.416Z,99.90
2023-03-11T04:36:54.852Z,99.90
2023-03-11T04:39:21.702Z,99.90
2023-03-11T04:41:48.618Z,1.00
2023-03-11T04:44:15.551Z,1.00
2023-03-11T04:46:42.359Z,1.00
2023-03-11T04:49:09.964Z,1.00
2023-03-11T04:51:36.767Z,1.00
2023-03-11T04:54:03.696Z,1.00
2023-03-11T04:56:30.504Z,1.00
2023-03-11T04:58:57.492Z,1.00
2023-03-11T05:01:24.338Z,1.00
2023-03-11T05:03:51.232Z,1.00
2023-03-11T05:06:18.050Z,1.00
2023-03-11T05:08:44.949Z,1.00
2023-03-11T05:11:11.899Z,1.00
2023-03-11T05:13:38.660Z,1.00
2023-03-11T05:16:05.975Z,1.00
2023-03-11T05:18:32.855Z,1.00
2023-03-11T05:20:59.696Z,1.00
2023-03-11T05:23:26.529Z,1.00
2023-03-11T05:25:53.336Z,1.00
2023-03-11T05:28:20.119Z,1.00
2023-03-11T05:30:46.908Z,1.00
2023-03-11T05:33:13.712Z,1.00
2023-03-11T05:35:40.594Z,1.00
2023-03-11T05:38:07.878Z,1.00
2023-03-11T05:40:34.677Z,1.00
2023-03-11T05:43:01.457Z,1.00
2023-03-11T05:45:28.301Z,1.00
2023-03-11T05:47:55.135Z,1.00
2023-03-11T05:50:22.057Z,1.00
2023-03-11T05:52:49.006Z,1.00
2023-03-11T05:55:15.901Z,1.00
2023-03-11T05:57:42.706Z,1.00
2023-03-11T06:00:13.292Z,1.00
2023-03-11T06:02:40.870Z,1.00
2023-03-11T06:05:09.059Z,1.00
2023-03-11T06:07:36.449Z,1.00
2023-03-11T06:10:05.118Z,1.00
2023-03-11T06:12:34.144Z,1.00
2023-03-11T06:15:00.962Z,1.00
2023-03-11T06:17:30.228Z,1.00
2023-03-11T06:19:57.310Z,1.00
2023-03-11T06:22:24.130Z,1.00
2023-03-11T06:24:50.966Z,1.00
2023-03-11T06:27:17.770Z,1.00
2023-03-11T06:29:44.559Z,1.00
2023-03-11T06:32:11.450Z,1.00
2023-03-11T06:34:38.299Z,1.00
2023-03-11T06:37:05.199Z,1.00
2023-03-11T06:39:32.040Z,1.00
2023-03-11T06:41:58.828Z,1.00
2023-03-11T06:44:25.667Z,1.00
2023-03-11T06:46:52.476Z,22.60
2023-03-11T06:49:19.346Z,75.00
2023-03-11T06:51:46.155Z,71.70
2023-03-11T06:54:13.116Z,23.60
2023-03-11T06:56:39.925Z,20.10
2023-03-11T06:59:06.707Z,26.60
2023-03-11T07:01:33.576Z,52.40
2023-03-11T07:04:00.512Z,99.90
2023-03-11T07:06:28.293Z,99.90
2023-03-11T07:08:55.174Z,99.90
2023-03-11T07:11:24.127Z,99.90
2023-03-11T07:13:51.675Z,99.90
2023-03-11T07:16:21.093Z,99.90
2023-03-11T07:18:49.446Z,99.90
2023-03-11T07:21:18.858Z,99.90
2023-03-11T07:23:46.725Z,99.90
2023-03-11T07:26:15.414Z,99.90
2023-03-11T07:28:42.445Z,99.90
2023-03-11T07:31:15.153Z,99.90
2023-03-11T07:33:42.018Z,99.90
2023-03-11T07:36:11.352Z,1.00
2023-03-11T07:38:38.996Z,1.00
2023-03-11T07:41:06.099Z,1.00
2023-03-11T07:43:33.258Z,1.00
2023-03-11T07:46:07.776Z,1.00
2023-03-11T07:48:36.218Z,1.00
2023-03-11T07:51:10.397Z,1.00
2023-03-11T07:53:37.462Z,1.00
2023-03-11T07:56:04.655Z,1.00
2023-03-11T07:58:31.502Z,1.00
2023-03-11T08:01:04.539Z,1.00
2023-03-11T08:03:31.441Z,1.00
2023-03-11T08:05:58.259Z,1.00
2023-03-11T08:08:25.120Z,1.00
2023-03-11T08:10:51.922Z,1.00
2023-03-11T08:13:18.956Z,1.00
2023-03-11T08:15:45.841Z,99.90
2023-03-11T08:18:13.080Z,1.00
2023-03-11T08:20:39.923Z,99.90
2023-03-11T08:23:06.739Z,99.90
2023-03-11T08:25:33.644Z,99.90
2023-03-11T08:28:00.458Z,99.90
2023-03-11T08:30:27.350Z,99.90
2023-03-11T08:32:54.201Z,99.90
2023-03-11T08:35:21.102Z,1.00
2023-03-11T08:37:48.380Z,99.90
2023-03-11T08:40:15.367Z,1.00
2023-03-11T08:42:42.164Z,1.00
2023-03-11T08:45:09.936Z,1.00
2023-03-11T08:47:37.696Z,1.00
2023-03-11T08:50:07.440Z,1.00
2023-03-11T08:52:34.421Z,99.90
2023-03-11T08:55:01.237Z,99.90
2023-03-11T08:57:28.025Z,9.20
2023-03-11T08:59:54.875Z,1.00
2023-03-11T09:02:21.746Z,99.90
2023-03-11T09:04:48.542Z,1.00
2023-03-11T09:07:15.446Z,1.00
2023-03-11T09:09:42.254Z,1.00
2023-03-11T09:12:09.925Z,99.90
2023-03-11T09:14:39.449Z,99.90
2023-03-11T09:17:06.822Z,8.20
2023-03-11T09:19:33.944Z,1.00
2023-03-11T09:22:01.619Z,1.00
2023-03-11T09:24:28.631Z,99.90
2023-03-11T09:26:55.458Z,1.00
2023-03-11T09:29:22.252Z,1.00
2023-03-11T09:31:49.182Z,99.90
2023-03-11T09:34:16.346Z,1.00
2023-03-11T09:36:43.784Z,1.00
2023-03-11T09:39:10.622Z,99.90
2023-03-11T09:41:59.310Z,1.00
2023-03-11T09:45:00.310Z,1.00
2023-03-11T09:47:33.804Z,1.00
2023-03-11T09:50:16.547Z,1.00
2023-03-11T09:52:55.468Z,99.90
2023-03-11T09:55:37.804Z,1.00
2023-03-11T09:58:13.462Z,1.00
2023-03-11T10:00:40.807Z,1.00
2023-03-11T10:03:23.433Z,1.00
2023-03-11T10:05:51.556Z,1.00
2023-03-11T10:08:39.354Z,89.30
2023-03-11T10:11:45.354Z,99.90
2023-03-11T10:14:18.438Z,99.90
2023-03-11T10:17:05.519Z,99.90
2023-03-11T10:19:44.482Z,99.90
2023-03-11T10:22:18.327Z,42.80
2023-03-11T10:25:04.370Z,99.90
2023-03-11T10:27:53.205Z,99.90
2023-03-11T10:30:25.723Z,99.90
2023-03-11T10:32:58.579Z,99.90
2023-03-11T10:35:39.511Z,99.90
2023-03-11T10:38:19.814Z,99.90
2023-03-11T10:40:48.825Z,35.70
2023-03-11T10:43:38.086Z,1.00
2023-03-11T10:46:13.640Z,1.00
2023-03-11T10:48:40.469Z,1.00
2023-03-11T10:51:22.677Z,1.00
2023-03-11T10:53:52.850Z,1.00
2023-03-11T10:56:37.429Z,99.90
2023-03-11T10:59:10.961Z,1.00
2023-03-11T11:01:37.809Z,1.00
2023-03-11T11:04:26.110Z,99.90
2023-03-11T11:06:52.887Z,1.00
2023-03-11T11:09:24.075Z,1.00
2023-03-11T11:12:07.222Z,1.00
2023-03-11T11:14:48.020Z,1.00
2023-03-11T11:17:24.919Z,1.00
2023-03-11T11:19:52.467Z,1.00
2023-03-11T11:22:21.536Z,1.00
2023-03-11T11:24:51.323Z,1.00
2023-03-11T11:27:26.657Z,16.80
2023-03-11T11:30:08.924Z,1.00
2023-03-11T11:32:37.152Z,1.00
2023-03-11T11:35:07.293Z,1.00
2023-03-11T11:37:36.789Z,1.00
2023-03-11T11:40:14.380Z,1.00
2023-03-11T11:42:51.484Z,1.00
2023-03-11T11:45:37.166Z,1.00
2023-03-11T11:48:12.174Z,1.00
2023-03-11T11:50:49.199Z,1.00
2023-03-11T11:53:33.001Z,1.00
2023-03-11T11:56:00.266Z,1.00
2023-03-11T11:58:27.253Z,1.00
2023-03-11T12:01:13.059Z,1.00
2023-03-11T12:04:02.772Z,1.00
2023-03-11T12:06:48.088Z,1.00
2023-03-11T12:09:31.208Z,1.00
2023-03-11T12:12:21.016Z,1.00
2023-03-11T12:15:12.565Z,1.00
2023-03-11T12:17:41.973Z,1.00
2023-03-11T12:20:28.310Z,99.90
2023-03-11T12:23:18.477Z,99.90
2023-03-11T12:26:09.468Z,1.00
2023-03-11T12:28:57.783Z,1.00
2023-03-11T12:31:28.022Z,1.00
2023-03-11T12:34:02.332Z,99.90
2023-03-11T12:36:34.577Z,99.90
2023-03-11T12:39:05.446Z,1.00
2023-03-11T12:41:40.509Z,1.00
2023-03-11T12:44:29.892Z,99.90
2023-03-11T12:46:59.774Z,99.90
2023-03-11T12:49:54.818Z,99.90
2023-03-11T12:52:23.085Z,99.90
2023-03-11T12:55:18.617Z,99.90
2023-03-11T12:57:48.450Z,99.90
2023-03-11T13:01:08.546Z,99.90
2023-03-11T13:03:56.961Z,99.90
2023-03-11T13:06:42.148Z,99.90
2023-03-11T13:09:16.648Z,99.90
2023-03-11T13:11:48.381Z,99.90
2023-03-11T13:14:16.241Z,99.90
2023-03-11T13:16:44.132Z,99.90
2023-03-11T13:19:26.358Z,99.90
2023-03-11T13:21:54.687Z,99.90
2023-03-11T13:24:29.515Z,99.90
2023-03-11T13:27:04.955Z,99.90
2023-03-11T13:29:52.258Z,99.90
2023-03-11T13:32:26.302Z,99.90
2023-03-11T13:35:22.728Z,99.90
2023-03-11T13:38:11.408Z,99.90
2023-03-11T13:40:40.480Z,99.90
2023-03-11T13:43:24.631Z,99.90
2023-03-11T13:46:13.251Z,99.90
2023-03-11T13:48:45.432Z,99.90
2023-03-11T13:51:17.736Z,99.90
2023-03-11T13:53:46.848Z,99.90
2023-03-11T13:56:27.075Z,99.90
2023-03-11T13:58:55.013Z,99.90
2023-03-11T14:01:22.177Z,99.90
2023-03-11T14:03:49.197Z,99.90
2023-03-11T14:06:19.740Z,99.90
2023-03-11T14:08:57.465Z,99.90
2023-03-11T14:11:31.829Z,99.90
2023-03-11T14:13:58.838Z,99.90
2023-03-11T14:16:35.254Z,99.90
2023-03-11T14:19:18.689Z,99.90
2023-03-11T14:21:47.186Z,99.90
2023-03-11T14:24:23.351Z,99.90
2023-03-11T14:26:53.701Z,99.90
2023-03-11T14:29:24.867Z,99.90
2023-03-11T14:31:51.775Z,99.90
2023-03-11T14:34:25.388Z,99.90
2023-03-11T14:36:55.397Z,99.90
2023-03-11T14:39:33.429Z,99.90
2023-03-11T14:42:06.140Z,99.90
2023-03-11T14:44:36.056Z,99.90
2023-03-11T14:47:31.009Z,99.90
2023-03-11T14:49:58.659Z,99.90
2023-03-11T14:52:32.686Z,99.90
2023-03-11T14:55:00.103Z,99.90
2023-03-11T14:57:37.687Z,99.90
2023-03-11T15:00:08.390Z,99.90
2023-03-11T15:02:41.944Z,99.90
2023-03-11T15:05:18.893Z,99.90
2023-03-11T15:07:46.234Z,99.90
2023-03-11T15:10:13.517Z,99.90
2023-03-11T15:12:42.715Z,27.60
2023-03-11T15:15:29.170Z,30.00
2023-03-11T15:17:58.268Z,20.30
2023-03-11T15:20:36.285Z,62.10
2023-03-11T15:23:06.065Z,17.60
2023-03-11T15:25:34.926Z,4.90
2023-03-11T15:28:34.722Z,41.10
2023-03-11T15:31:33.884Z,57.70
2023-03-11T15:34:19.080Z,29.90
2023-03-11T15:36:48.504Z,1.00
2023-03-11T15:39:19.482Z,10.30
2023-03-11T15:42:03.736Z,53.30
2023-03-11T15:44:49.806Z,15.60
2023-03-11T15:47:18.768Z,15.00
2023-03-11T15:49:46.097Z,93.00
2023-03-11T15:52:13.212Z,41.80
2023-03-11T15:54:40.140Z,68.30
2023-03-11T15:57:10.645Z,2.30
2023-03-11T15:59:41.230Z,97.90
2023-03-11T16:02:22.074Z,60.60
2023-03-11T16:04:49.202Z,49.70
2023-03-11T16:07:17.092Z,36.30
2023-03-11T16:09:44.144Z,20.30
2023-03-11T16:12:20.956Z,92.20
2023-03-11T16:14:48.800Z,39.10
2023-03-11T16:17:16.169Z,6.70
2023-03-11T16:19:43.287Z,22.20
2023-03-11T16:22:22.187Z,57.50
2023-03-11T16:24:50.819Z,3.90
2023-03-11T16:27:18.365Z,1.00
2023-03-11T16:29:46.283Z,15.10
2023-03-11T16:32:13.623Z,1.00
2023-03-11T16:34:40.592Z,1.00
2023-03-11T16:37:08.019Z,3.80
2023-03-11T16:39:34.981Z,1.00
2023-03-11T16:42:02.064Z,13.30
2023-03-11T16:44:28.907Z,77.80
2023-03-11T16:46:55.865Z,20.10
2023-03-11T16:49:22.700Z,54.40
2023-03-11T16:51:49.517Z,20.20
2023-03-11T16:54:16.331Z,6.50
2023-03-11T16:56:43.224Z,1.00
2023-03-11T16:59:10.126Z,1.00
2023-03-11T17:01:39.141Z,1.00
2023-03-11T17:04:07.109Z,2.80
2023-03-11T17:06:37.174Z,1.00
2023-03-11T17:09:04.284Z,16.20
2023-03-11T17:11:33.129Z,88.10
2023-03-11T17:14:13.830Z,66.40
2023-03-11T17:16:42.425Z,73.60
2023-03-11T17:19:09.249Z,99.90
2023-03-11T17:21:36.047Z,99.90
2023-03-11T17:24:02.898Z,74.20
2023-03-11T17:26:31.667Z,32.90
2023-03-11T17:28:59.414Z,83.10
2023-03-11T17:31:26.386Z,81.00
2023-03-11T17:33:53.270Z,88.00
2023-03-11T17:36:20.886Z,99.90
2023-03-11T17:38:51.450Z,99.90
2023-03-11T17:41:18.948Z,78.70
2023-03-11T17:43:46.247Z,99.90
2023-03-11T17:46:17.461Z,99.90
2023-03-11T17:48:46.147Z,93.70
2023-03-11T17:51:18.547Z,45.20
2023-03-11T17:53:46.756Z,99.90
2023-03-11T17:56:16.317Z,71.40
2023-03-11T17:58:43.201Z,86.50
2023-03-11T18:01:20.709Z,99.90
2023-03-11T18:03:47.707Z,97.00
2023-03-11T18:06:15.757Z,99.90
2023-03-11T18:08:42.530Z,99.90
2023-03-11T18:11:13.297Z,99.90
2023-03-11T18:13:40.814Z,70.60
2023-03-11T18:16:16.434Z,99.90
2023-03-11T18:18:43.759Z,99.90
2023-03-11T18:21:16.096Z,99.90
2023-03-11T18:23:43.928Z,99.90
2023-03-11T18:26:13.158Z,99.90
2023-03-11T18:28:40.094Z,99.90
2023-03-11T18:31:10.650Z,99.90
2023-03-11T18:33:37.894Z,99.90
2023-03-11T18:36:35.851Z,99.90
2023-03-11T18:39:02.864Z,99.90
2023-03-11T18:41:32.103Z,99.90
2023-03-11T18:43:59.408Z,99.90
2023-03-11T18:46:28.626Z,99.90
2023-03-11T18:48:59.180Z,99.90
2023-03-11T18:51:27.403Z,99.90
2023-03-11T18:53:54.453Z,99.90
2023-03-11T18:56:21.490Z,99.90
2023-03-11T18:58:48.385Z,99.90
2023-03-11T19:01:20.798Z,99.90
2023-03-11T19:03:53.196Z,99.90
2023-03-11T19:06:21.452Z,99.90
2023-03-11T19:08:48.608Z,99.90
2023-03-11T19:11:19.171Z,99.90
2023-03-11T19:13:47.795Z,99.90
2023-03-11T19:16:17.356Z,99.90
2023-03-11T19:18:44.483Z,99.90
2023-03-11T19:21:13.055Z,99.90
2023-03-11T19:23:40.322Z,99.90
2023-03-11T19:26:07.361Z,99.90
2023-03-11T19:28:34.678Z,99.90
2023-03-11T19:31:01.796Z,99.90
2023-03-11T19:33:29.210Z,99.90
2023-03-11T19:36:01.277Z,99.90
2023-03-11T19:38:29.244Z,99.90
2023-03-11T19:41:14.560Z,99.90
2023-03-11T19:43:42.206Z,99.90
2023-03-11T19:46:11.211Z,99.90
2023-03-11T19:48:38.089Z,84.80
2023-03-11T19:51:08.413Z,52.10
2023-03-11T19:53:36.506Z,99.90
2023-03-11T19:56:04.791Z,99.90
2023-03-11T19:58:31.892Z,99.90
2023-03-11T20:00:59.472Z,99.90
2023-03-11T20:03:26.890Z,99.90
2023-03-11T20:05:56.830Z,99.90
2023-03-11T20:08:24.943Z,99.90
2023-03-11T20:10:52.658Z,99.90
2023-03-11T20:13:20.758Z,99.90
2023-03-11T20:15:47.868Z,99.90
2023-03-11T20:18:15.603Z,81.50
2023-03-11T20:20:43.291Z,99.90
2023-03-11T20:23:11.531Z,64.00
2023-03-11T20:25:39.772Z,76.50
2023-03-11T20:28:07.276Z,77.80
2023-03-11T20:30:34.605Z,77.70
2023-03-11T20:33:01.530Z,50.20
2023-03-11T20:35:28.656Z,41.00
2023-03-11T20:37:55.933Z,80.70
2023-03-11T20:40:23.232Z,49.10
2023-03-11T20:42:50.142Z,60.70
2023-03-11T20:45:21.620Z,39.40
2023-03-11T20:47:49.814Z,54.50
2023-03-11T20:50:17.205Z,42.00
2023-03-11T20:52:46.335Z,31.60
2023-03-11T20:55:13.285Z,46.30
2023-03-11T20:57:40.377Z,78.50
2023-03-11T21:00:11.407Z,29.70
2023-03-11T21:02:39.870Z,48.60
2023-03-11T21:05:08.316Z,54.60
2023-03-11T21:07:35.898Z,37.10
2023-03-11T21:10:05.377Z,39.90
2023-03-11T21:12:32.388Z,40.50
2023-03-11T21:14:59.241Z,46.40
2023-03-11T21:17:26.134Z,29.80
2023-03-11T21:19:53.285Z,37.40
2023-03-11T21:22:20.221Z,27.80
2023-03-11T21:24:52.181Z,27.90
2023-03-11T21:27:25.825Z,17.10
2023-03-11T21:29:54.212Z,23.00
2023-03-11T21:32:22.645Z,29.70
2023-03-11T21:34:49.965Z,19.50
2023-03-11T21:37:18.759Z,37.70
2023-03-11T21:39:45.633Z,32.90
2023-03-11T21:42:12.551Z,28.10
2023-03-11T21:44:39.496Z,30.00
2023-03-11T21:47:06.421Z,38.70
2023-03-11T21:49:33.441Z,16.20
2023-03-11T21:52:02.196Z,23.80
2023-03-11T21:54:29.308Z,16.30
2023-03-11T21:56:56.257Z,23.40
2023-03-11T21:59:25.487Z,26.30
2023-03-11T22:01:52.919Z,14.10
2023-03-11T22:04:19.966Z,16.10
2023-03-11T22:06:46.865Z,26.50
2023-03-11T22:09:14.012Z,26.30
2023-03-11T22:11:40.978Z,25.20
2023-03-11T22:14:07.862Z,20.90
2023-03-11T22:16:34.810Z,30.20
2023-03-11T22:19:02.490Z,26.20
2023-03-11T22:21:29.543Z,29.90
2023-03-11T22:23:56.494Z,26.70
2023-03-11T22:26:23.337Z,48.90
2023-03-11T22:28:50.288Z,50.50
2023-03-11T22:31:18.754Z,68.10
2023-03-11T22:33:46.218Z,73.80
2023-03-11T22:36:13.110Z,69.20
2023-03-11T22:38:42.274Z,58.60
2023-03-11T22:41:09.303Z,47.80
2023-03-11T22:43:37.070Z,67.50
2023-03-11T22:46:04.972Z,60.80
2023-03-11T22:48:33.020Z,44.40
2023-03-11T22:50:59.996Z,51.90
2023-03-11T22:53:27.006Z,61.80
2023-03-11T22:55:56.679Z,56.50
2023-03-11T22:58:23.758Z,69.20
2023-03-11T23:00:50.607Z,70.40
2023-03-11T23:03:17.467Z,68.60
2023-03-11T23:05:45.968Z,75.40
2023-03-11T23:08:15.454Z,94.40
2023-03-11T23:10:44.466Z,85.90
2023-03-11T23:13:12.108Z,88.60
2023-03-11T23:15:43.709Z,88.70
2023-03-11T23:18:11.083Z,99.90
2023-03-11T23:20:39.851Z,99.90
2023-03-11T23:23:07.079Z,99.90
2023-03-11T23:25:35.127Z,99.90
2023-03-11T23:28:03.879Z,99.90
2023-03-11T23:30:31.428Z,99.90
2023-03-11T23:32:59.284Z,99.90
2023-03-11T23:35:26.208Z,99.90
2023-03-11T23:37:53.060Z,99.90
2023-03-11T23:40:19.909Z,99.90
2023-03-11T23:42:46.724Z,99.90
2023-03-11T23:45:13.665Z,99.90
2023-03-11T23:47:40.428Z,99.90
2023-03-11T23:50:07.911Z,99.90
2023-03-11T23:52:35.076Z,99.90
2023-03-11T23:55:02.284Z,99.90
2023-03-11T23:57:35.028Z,99.90
